Time;durP1;ratioP1;P1;durP2;ratioP2;P2;SDS_P1;SDS_P2;PMS_P1;PMS_P2;Temp;Humidity;BMP_temperature;BMP_pressure;BME280_temperature;BME280_humidity;BME280_pressure;Samples;Min_cycle;Max_cycle;Signal;HPM_P1;HPM_P2
2022/10/04 00:00:27;;;;;;;;;;;13.50;99.90;;;;;;8435898;28;20368;-79
2022/10/04 00:04:32;;;;;;;;;;;13.50;99.90;;;;;;8437822;28;19986;-79
2022/10/04 00:08:48;;;;;;;;;;;13.40;99.90;;;;;;8456210;27;19926;-79
2022/10/04 00:12:58;;;;;;;;;;;13.40;99.90;;;;;;8437724;28;19927;-79
2022/10/04 00:17:07;;;;;;;;;;;13.40;99.90;;;;;;8439536;28;19919;-78
2022/10/04 00:21:09;;;;;;;;;;;13.40;99.90;;;;;;8435007;28;19957;-78
2022/10/04 00:25:12;;;;;;;;;;;13.40;99.90;;;;;;8423466;28;19920;-79
2022/10/04 00:29:33;;;;;;;;;;;13.30;99.90;;;;;;8427252;28;19920;-79
2022/10/04 00:33:36;;;;;;;;;;;13.40;99.90;;;;;;8408115;28;19942;-79
2022/10/04 00:37:54;;;;;;;;;;;13.40;99.90;;;;;;8387774;28;19923;-79
2022/10/04 00:42:05;;;;;;;;;;;13.30;99.90;;;;;;8428532;28;20278;-79
2022/10/04 00:51:10;;;;;;;;;;;13.40;99.90;;;;;;8435297;28;20406;-79
2022/10/04 00:55:18;;;;;;;;;;;13.40;99.90;;;;;;8436466;28;19927;-79
2022/10/04 00:59:39;;;;;;;;;;;13.30;99.90;;;;;;8424416;28;19979;-79
2022/10/04 01:03:42;;;;;;;;;;;13.40;99.90;;;;;;8446703;27;19924;-79
2022/10/04 01:07:46;;;;;;;;;;;13.40;99.90;;;;;;8454816;28;19927;-79
2022/10/04 01:11:55;;;;;;;;;;;13.30;99.90;;;;;;8435364;28;20014;-79
2022/10/04 01:16:15;;;;;;;;;;;13.40;99.90;;;;;;8433998;28;20298;-79
2022/10/04 01:20:27;;;;;;;;;;;13.40;99.90;;;;;;8421715;28;19924;-79
2022/10/04 01:24:33;;;;;;;;;;;13.30;99.90;;;;;;8423180;28;19942;-79
2022/10/04 01:28:35;;;;;;;;;;;13.30;99.90;;;;;;8449925;28;20370;-79
2022/10/04 01:32:37;;;;;;;;;;;13.30;99.90;;;;;;8445341;27;19920;-79
2022/10/04 01:36:39;;;;;;;;;;;13.30;99.90;;;;;;8445526;28;19923;-79
2022/10/04 01:40:53;;;;;;;;;;;13.30;99.90;;;;;;8430400;28;20006;-79
2022/10/04 01:44:57;;;;;;;;;;;13.30;99.90;;;;;;8434251;28;19924;-79
2022/10/04 01:49:01;;;;;;;;;;;13.20;99.90;;;;;;8418154;28;20274;-79
2022/10/04 01:53:13;;;;;;;;;;;13.20;99.90;;;;;;8438238;28;19962;-79
2022/10/04 01:57:16;;;;;;;;;;;13.20;99.90;;;;;;8438026;27;19927;-79
2022/10/04 02:01:38;;;;;;;;;;;13.20;99.90;;;;;;8420737;28;19928;-79
2022/10/04 02:05:55;;;;;;;;;;;13.20;99.90;;;;;;8445254;28;19984;-79
2022/10/04 02:09:59;;;;;;;;;;;13.20;99.90;;;;;;8427872;28;19924;-79
2022/10/04 02:14:02;;;;;;;;;;;13.10;99.90;;;;;;8456109;28;20339;-79
2022/10/04 02:18:16;;;;;;;;;;;13.10;99.90;;;;;;8431317;28;20002;-79
2022/10/04 02:22:17;;;;;;;;;;;13.00;99.90;;;;;;8442279;28;19924;-79
2022/10/04 02:26:20;;;;;;;;;;;12.90;99.90;;;;;;8433344;28;19930;-79
2022/10/04 02:30:22;;;;;;;;;;;12.90;99.90;;;;;;8434227;28;20258;-78
2022/10/04 02:34:23;;;;;;;;;;;12.80;99.90;;;;;;8420713;28;19959;-79
2022/10/04 02:38:29;;;;;;;;;;;12.80;99.90;;;;;;8441795;28;19970;-79
2022/10/04 02:42:43;;;;;;;;;;;12.80;99.90;;;;;;8461121;27;20363;-79
2022/10/04 02:57:09;;;;;;;;;;;12.70;99.90;;;;;;8448996;28;19958;-79
2022/10/04 03:01:14;;;;;;;;;;;12.60;99.90;;;;;;8453828;28;20298;-79
2022/10/04 03:05:16;;;;;;;;;;;12.60;99.90;;;;;;8434004;28;20291;-79
2022/10/04 03:09:19;;;;;;;;;;;12.50;99.90;;;;;;8425079;28;19920;-79
2022/10/04 03:13:21;;;;;;;;;;;12.50;99.90;;;;;;8429925;28;19928;-79
2022/10/04 03:17:23;;;;;;;;;;;12.40;99.90;;;;;;8405875;28;19923;-79
2022/10/04 03:21:25;;;;;;;;;;;12.40;99.90;;;;;;8452550;28;19946;-79
2022/10/04 03:25:34;;;;;;;;;;;12.30;99.90;;;;;;8438282;28;19956;-79
2022/10/04 03:29:38;;;;;;;;;;;12.30;99.90;;;;;;8426043;28;19919;-79
2022/10/04 03:33:41;;;;;;;;;;;12.30;99.90;;;;;;8454739;28;19920;-79
2022/10/04 03:37:43;;;;;;;;;;;12.30;99.90;;;;;;8451963;28;19926;-79
2022/10/04 03:41:45;;;;;;;;;;;12.30;99.90;;;;;;8443877;28;19926;-79
2022/10/04 03:45:47;;;;;;;;;;;12.30;99.90;;;;;;8436838;28;19926;-79
2022/10/04 03:49:51;;;;;;;;;;;12.30;99.90;;;;;;8420822;28;19920;-78
2022/10/04 03:53:54;;;;;;;;;;;12.30;99.90;;;;;;8431052;28;20062;-79
2022/10/04 04:03:19;;;;;;;;;;;12.30;99.90;;;;;;8422741;28;19938;-79
2022/10/04 04:07:24;;;;;;;;;;;12.20;99.90;;;;;;8445505;28;19934;-79
2022/10/04 04:11:27;;;;;;;;;;;12.10;99.90;;;;;;8436055;28;19958;-79
2022/10/04 04:15:30;;;;;;;;;;;12.10;99.90;;;;;;8441696;28;20278;-79
2022/10/04 04:19:32;;;;;;;;;;;12.00;99.90;;;;;;8420071;28;19934;-78
2022/10/04 04:23:37;;;;;;;;;;;12.00;99.90;;;;;;8446155;28;19924;-78
2022/10/04 04:27:40;;;;;;;;;;;11.90;99.90;;;;;;8441522;28;19920;-78
2022/10/04 04:31:49;;;;;;;;;;;11.80;99.90;;;;;;8435865;28;20015;-78
2022/10/04 04:36:01;;;;;;;;;;;11.80;99.90;;;;;;8437441;28;20007;-78
2022/10/04 04:40:19;;;;;;;;;;;11.70;99.90;;;;;;8440096;28;19934;-78
2022/10/04 04:44:21;;;;;;;;;;;11.70;99.90;;;;;;8452031;28;20389;-78
2022/10/04 04:48:23;;;;;;;;;;;11.70;99.90;;;;;;8446993;28;19926;-78
2022/10/04 04:52:27;;;;;;;;;;;11.60;99.90;;;;;;8456011;28;19942;-78
2022/10/04 04:56:29;;;;;;;;;;;11.60;99.90;;;;;;8454638;28;19920;-78
2022/10/04 05:00:32;;;;;;;;;;;11.60;99.90;;;;;;8413161;28;20314;-78
2022/10/04 05:04:35;;;;;;;;;;;11.50;99.90;;;;;;8459344;28;19931;-78
2022/10/04 05:08:37;;;;;;;;;;;11.50;99.90;;;;;;8441481;27;20360;-78
2022/10/04 05:12:41;;;;;;;;;;;11.50;99.90;;;;;;8437444;28;20289;-78
2022/10/04 05:16:53;;;;;;;;;;;11.40;99.90;;;;;;8418942;28;20328;-78
2022/10/04 05:20:56;;;;;;;;;;;11.40;99.90;;;;;;8413215;28;19919;-78
2022/10/04 05:25:08;;;;;;;;;;;11.40;99.90;;;;;;8433208;28;19928;-78
2022/10/04 05:29:14;;;;;;;;;;;11.40;99.90;;;;;;8419172;28;20598;-78
2022/10/04 05:33:41;;;;;;;;;;;11.30;99.90;;;;;;8436454;28;20002;-78
2022/10/04 05:38:02;;;;;;;;;;;11.30;99.90;;;;;;8418983;28;20500;-78
2022/10/04 05:42:10;;;;;;;;;;;11.40;99.90;;;;;;8429597;27;19941;-78
2022/10/04 05:46:11;;;;;;;;;;;11.40;99.90;;;;;;8432297;28;19926;-78
2022/10/04 05:50:34;;;;;;;;;;;11.40;99.90;;;;;;8424723;28;19958;-78
2022/10/04 05:54:36;;;;;;;;;;;11.40;99.90;;;;;;8424570;28;19985;-78
2022/10/04 05:58:57;;;;;;;;;;;11.50;99.90;;;;;;8442338;28;20017;-78
2022/10/04 06:03:08;;;;;;;;;;;11.50;99.90;;;;;;8424796;28;19939;-78
2022/10/04 06:07:22;;;;;;;;;;;11.50;99.90;;;;;;8447139;27;19920;-78
2022/10/04 06:11:40;;;;;;;;;;;11.60;99.90;;;;;;8428611;28;19930;-79
2022/10/04 06:15:48;;;;;;;;;;;11.60;99.90;;;;;;8430234;28;19971;-78
2022/10/04 06:20:25;;;;;;;;;;;11.60;99.90;;;;;;8433983;28;19920;-78
2022/10/04 06:24:29;;;;;;;;;;;11.60;99.90;;;;;;8339603;28;19984;-78
2022/10/04 06:28:35;;;;;;;;;;;11.60;99.90;;;;;;8421358;28;19959;-79
2022/10/04 06:32:49;;;;;;;;;;;11.60;99.90;;;;;;8444308;28;19943;-78
2022/10/04 06:37:01;;;;;;;;;;;11.60;99.90;;;;;;8445428;28;20244;-78
2022/10/04 06:41:03;;;;;;;;;;;11.70;99.90;;;;;;8427312;28;19923;-78
2022/10/04 06:45:20;;;;;;;;;;;11.60;99.90;;;;;;8438657;28;20329;-78
2022/10/04 06:49:27;;;;;;;;;;;11.70;99.90;;;;;;8444103;28;19924;-78
2022/10/04 06:53:35;;;;;;;;;;;11.70;99.90;;;;;;8437596;28;19985;-78
2022/10/04 06:57:43;;;;;;;;;;;11.70;99.90;;;;;;8439699;28;19920;-78
2022/10/04 07:01:50;;;;;;;;;;;11.70;99.90;;;;;;8443145;28;19969;-78
2022/10/04 07:05:54;;;;;;;;;;;11.80;99.90;;;;;;8453990;28;19923;-78
2022/10/04 07:10:00;;;;;;;;;;;11.80;99.90;;;;;;8418897;28;19962;-79
2022/10/04 07:14:01;;;;;;;;;;;11.90;99.90;;;;;;8444162;28;19920;-77
2022/10/04 07:18:07;;;;;;;;;;;12.00;99.90;;;;;;8435315;28;19996;-78
2022/10/04 07:47:24;;;;;;;;;;;12.20;99.90;;;;;;8418758;28;20057;-78
2022/10/04 07:51:31;;;;;;;;;;;12.40;99.90;;;;;;8386032;28;20372;-78
2022/10/04 07:55:36;;;;;;;;;;;12.50;99.90;;;;;;8401735;28;19982;-77
2022/10/04 07:59:56;;;;;;;;;;;12.70;99.90;;;;;;8404747;28;19930;-78
2022/10/04 08:03:58;;;;;;;;;;;12.80;99.90;;;;;;8395786;28;19927;-78
2022/10/04 08:08:15;;;;;;;;;;;12.90;99.90;;;;;;8401780;28;19927;-77
2022/10/04 08:12:20;;;;;;;;;;;13.00;99.90;;;;;;8394883;28;19920;-78
2022/10/04 08:16:31;;;;;;;;;;;13.00;99.90;;;;;;8406668;28;20027;-78
2022/10/04 08:20:35;;;;;;;;;;;13.10;99.90;;;;;;8409471;28;20086;-78
2022/10/04 08:24:43;;;;;;;;;;;13.20;99.90;;;;;;8414554;28;19920;-78
2022/10/04 08:33:21;;;;;;;;;;;13.40;99.90;;;;;;8402659;28;19920;-78
2022/10/04 08:37:31;;;;;;;;;;;13.40;99.90;;;;;;8398537;28;19951;-78
2022/10/04 08:41:41;;;;;;;;;;;13.50;99.90;;;;;;8391973;28;19968;-77
2022/10/04 08:45:46;;;;;;;;;;;13.60;99.90;;;;;;8430027;28;19930;-78
2022/10/04 08:49:58;;;;;;;;;;;13.70;99.90;;;;;;8456761;28;19970;-79
2022/10/04 08:54:00;;;;;;;;;;;13.80;99.90;;;;;;8433996;28;19920;-78
2022/10/04 08:58:11;;;;;;;;;;;13.90;99.90;;;;;;8426050;28;19926;-78
2022/10/04 09:02:31;;;;;;;;;;;13.90;99.90;;;;;;8444644;28;20297;-78
2022/10/04 09:06:50;;;;;;;;;;;14.00;99.90;;;;;;8438620;28;19927;-78
2022/10/04 09:11:00;;;;;;;;;;;14.10;99.90;;;;;;8427158;28;19920;-78
2022/10/04 09:15:25;;;;;;;;;;;14.20;99.90;;;;;;8427748;28;19920;-77
2022/10/04 09:19:38;;;;;;;;;;;14.30;99.90;;;;;;8429135;28;20018;-78
2022/10/04 09:23:58;;;;;;;;;;;14.40;99.90;;;;;;8422893;28;20367;-77
2022/10/04 09:28:14;;;;;;;;;;;14.50;99.90;;;;;;8436012;28;19927;-78
2022/10/04 09:32:25;;;;;;;;;;;14.70;99.90;;;;;;8416821;28;19920;-78
2022/10/04 09:36:41;;;;;;;;;;;14.70;99.90;;;;;;8435440;28;20575;-78
2022/10/04 09:40:54;;;;;;;;;;;14.80;99.90;;;;;;8445407;28;19929;-79
2022/10/04 09:44:56;;;;;;;;;;;14.80;99.90;;;;;;8422086;28;19920;-78
2022/10/04 09:49:18;;;;;;;;;;;14.80;99.90;;;;;;8417118;28;19975;-79
2022/10/04 09:53:26;;;;;;;;;;;14.90;99.90;;;;;;8452968;27;20015;-78
2022/10/04 09:57:45;;;;;;;;;;;14.90;99.90;;;;;;8431490;28;20034;-79
2022/10/04 10:01:49;;;;;;;;;;;15.00;99.90;;;;;;8428032;28;19920;-78
2022/10/04 10:05:54;;;;;;;;;;;15.10;99.90;;;;;;8417498;28;19927;-78
2022/10/04 10:14:54;;;;;;;;;;;15.30;99.90;;;;;;8350162;28;20421;-77
2022/10/04 10:19:11;;;;;;;;;;;15.30;99.90;;;;;;8403936;28;19924;-77
2022/10/04 10:48:40;;;;;;;;;;;16.90;99.90;;;;;;8402642;28;19974;-78
2022/10/04 10:52:45;;;;;;;;;;;16.90;99.90;;;;;;8406597;28;19924;-77
2022/10/04 10:57:05;;;;;;;;;;;17.00;99.90;;;;;;8410860;28;20581;-77
2022/10/04 11:01:19;;;;;;;;;;;17.20;99.90;;;;;;8421921;27;19928;-79
2022/10/04 11:05:39;;;;;;;;;;;17.30;99.90;;;;;;8403869;28;20553;-77
2022/10/04 11:09:44;;;;;;;;;;;17.40;99.90;;;;;;8387845;28;19942;-78
2022/10/04 11:14:08;;;;;;;;;;;17.50;99.90;;;;;;8407139;28;19920;-78
2022/10/04 11:18:45;;;;;;;;;;;17.60;99.90;;;;;;8397235;28;19955;-78
2022/10/04 11:23:06;;;;;;;;;;;17.60;99.90;;;;;;8348496;28;20059;-77
2022/10/04 11:27:16;;;;;;;;;;;17.50;99.90;;;;;;8385861;28;20379;-77
2022/10/04 11:31:39;;;;;;;;;;;17.40;99.90;;;;;;8389422;28;19927;-78
2022/10/04 11:35:46;;;;;;;;;;;17.30;99.90;;;;;;8404289;28;19921;-78
2022/10/04 11:39:48;;;;;;;;;;;17.30;99.90;;;;;;8406658;28;19920;-78
2022/10/04 11:44:13;;;;;;;;;;;17.20;99.90;;;;;;8393622;28;19928;-77
2022/10/04 11:48:21;;;;;;;;;;;17.10;99.90;;;;;;8404625;28;19924;-77
2022/10/04 11:52:23;;;;;;;;;;;17.10;99.90;;;;;;8386135;28;19929;-77
2022/10/04 11:56:28;;;;;;;;;;;17.00;99.90;;;;;;8406378;28;19924;-78
2022/10/04 12:00:47;;;;;;;;;;;17.00;99.90;;;;;;8401949;28;20014;-79
2022/10/04 12:05:10;;;;;;;;;;;17.00;99.90;;;;;;8391844;28;19949;-77
2022/10/04 12:09:23;;;;;;;;;;;17.30;99.90;;;;;;8384429;28;20270;-78
2022/10/04 12:13:24;;;;;;;;;;;17.50;99.90;;;;;;8399554;28;19920;-77
2022/10/04 12:17:45;;;;;;;;;;;17.60;99.90;;;;;;8386277;28;20389;-78
2022/10/04 12:21:53;;;;;;;;;;;17.70;99.90;;;;;;8399941;28;19920;-79
2022/10/04 12:25:54;;;;;;;;;;;17.80;99.90;;;;;;8401408;28;19932;-78
2022/10/04 12:30:05;;;;;;;;;;;17.90;99.90;;;;;;8407221;28;19924;-78
2022/10/04 12:34:16;;;;;;;;;;;18.00;99.90;;;;;;8400186;28;19921;-78
2022/10/04 12:38:20;;;;;;;;;;;18.00;99.90;;;;;;8385744;28;19946;-78
2022/10/04 12:42:28;;;;;;;;;;;18.10;99.90;;;;;;8405587;28;20407;-78
2022/10/04 12:46:51;;;;;;;;;;;18.00;99.90;;;;;;8423265;27;19978;-77
2022/10/04 12:51:00;;;;;;;;;;;18.00;99.90;;;;;;8406456;28;20401;-78
2022/10/04 12:55:16;;;;;;;;;;;17.90;99.90;;;;;;8421363;27;19998;-78
2022/10/04 12:59:34;;;;;;;;;;;17.70;99.90;;;;;;8386035;28;19970;-78
2022/10/04 13:03:55;;;;;;;;;;;17.60;99.90;;;;;;8383422;28;19943;-78
2022/10/04 13:08:16;;;;;;;;;;;17.60;99.90;;;;;;8423386;28;19930;-78
2022/10/04 13:12:17;;;;;;;;;;;17.70;99.90;;;;;;8401255;28;20015;-79
2022/10/04 13:16:33;;;;;;;;;;;17.80;99.90;;;;;;8386767;28;20363;-78
2022/10/04 13:21:00;;;;;;;;;;;17.90;99.90;;;;;;8413761;28;19924;-78
2022/10/04 13:25:20;;;;;;;;;;;17.90;99.90;;;;;;8402002;28;19924;-78
2022/10/04 13:29:21;;;;;;;;;;;17.90;99.90;;;;;;8417464;27;20358;-78
2022/10/04 13:33:25;;;;;;;;;;;18.00;99.90;;;;;;8405244;28;19924;-79
2022/10/04 13:38:02;;;;;;;;;;;18.10;99.90;;;;;;8401573;28;19920;-79
2022/10/04 13:42:08;;;;;;;;;;;18.20;99.90;;;;;;8367588;28;19950;-78
2022/10/04 13:46:24;;;;;;;;;;;18.30;99.90;;;;;;8402924;28;19920;-78
2022/10/04 13:50:29;;;;;;;;;;;18.40;99.90;;;;;;8391754;28;19985;-78
2022/10/04 13:59:13;;;;;;;;;;;18.50;99.90;;;;;;8407035;28;19930;-79
2022/10/04 14:03:29;;;;;;;;;;;18.50;99.90;;;;;;8400123;28;20033;-78
2022/10/04 14:07:36;;;;;;;;;;;18.50;99.90;;;;;;8404229;28;19956;-78
2022/10/04 14:12:06;;;;;;;;;;;18.50;99.90;;;;;;8403771;28;19932;-78
2022/10/04 14:16:17;;;;;;;;;;;18.60;99.90;;;;;;8407451;28;19986;-78
2022/10/04 14:20:37;;;;;;;;;;;18.70;99.90;;;;;;8408329;28;19920;-78
2022/10/04 14:24:58;;;;;;;;;;;19.00;99.90;;;;;;8407528;28;19923;-78
2022/10/04 14:29:16;;;;;;;;;;;19.10;99.90;;;;;;8407947;28;19974;-78
2022/10/04 14:33:34;;;;;;;;;;;19.30;99.90;;;;;;8401528;28;20011;-79
2022/10/04 14:42:39;;;;;;;;;;;19.60;99.90;;;;;;8401079;28;19997;-78
2022/10/04 14:46:49;;;;;;;;;;;19.40;99.90;;;;;;8392427;28;19920;-78
2022/10/04 14:51:05;;;;;;;;;;;19.30;99.90;;;;;;8406503;28;19951;-78
2022/10/04 14:55:15;;;;;;;;;;;19.20;99.90;;;;;;8402816;28;19931;-78
2022/10/04 14:59:25;;;;;;;;;;;19.00;99.90;;;;;;8407486;28;19924;-79
2022/10/04 15:03:33;;;;;;;;;;;19.00;99.90;;;;;;8407529;28;19924;-79
2022/10/04 15:07:36;;;;;;;;;;;18.90;99.90;;;;;;8408759;28;19938;-79
2022/10/04 15:11:41;;;;;;;;;;;18.90;99.90;;;;;;8402667;28;19925;-78
2022/10/04 15:15:55;;;;;;;;;;;18.80;99.90;;;;;;8406931;28;20287;-78
2022/10/04 15:19:57;;;;;;;;;;;18.70;99.90;;;;;;8406539;28;20378;-77
2022/10/04 15:24:19;;;;;;;;;;;18.60;99.90;;;;;;8395440;28;19924;-78
2022/10/04 15:28:39;;;;;;;;;;;18.60;99.90;;;;;;8404274;28;19923;-78
2022/10/04 15:32:40;;;;;;;;;;;18.50;99.90;;;;;;8400308;28;19963;-78
2022/10/04 15:36:49;;;;;;;;;;;18.40;99.90;;;;;;8380903;28;19931;-79
2022/10/04 15:40:53;;;;;;;;;;;18.30;99.90;;;;;;8399723;28;20351;-78
2022/10/04 15:45:16;;;;;;;;;;;18.30;99.90;;;;;;8402390;28;19924;-79
2022/10/04 15:49:25;;;;;;;;;;;18.20;99.90;;;;;;8383024;28;20391;-77
2022/10/04 15:53:46;;;;;;;;;;;18.20;99.90;;;;;;8384201;28;20271;-78
2022/10/04 15:57:50;;;;;;;;;;;18.20;99.90;;;;;;8397452;28;19938;-79
2022/10/04 16:02:06;;;;;;;;;;;18.20;99.90;;;;;;8391876;28;20283;-79
2022/10/04 16:06:11;;;;;;;;;;;18.20;99.90;;;;;;8395911;28;19978;-79
2022/10/04 16:10:13;;;;;;;;;;;18.20;99.90;;;;;;8400086;28;20023;-78
2022/10/04 16:14:15;;;;;;;;;;;18.20;99.90;;;;;;8413573;28;19927;-78
2022/10/04 16:18:35;;;;;;;;;;;18.20;99.90;;;;;;8406490;28;19930;-79
2022/10/04 16:22:37;;;;;;;;;;;18.20;99.90;;;;;;8397606;28;19926;-78
2022/10/04 16:26:42;;;;;;;;;;;18.20;99.90;;;;;;8408532;28;20302;-78
2022/10/04 16:30:47;;;;;;;;;;;18.10;99.90;;;;;;8420677;27;19931;-78
2022/10/04 16:34:48;;;;;;;;;;;18.00;99.90;;;;;;8403202;28;19924;-78
2022/10/04 16:43:15;;;;;;;;;;;17.90;99.90;;;;;;8409105;28;20074;-78
2022/10/04 16:47:20;;;;;;;;;;;17.80;99.90;;;;;;8423025;28;19968;-78
2022/10/04 16:51:31;;;;;;;;;;;17.80;99.90;;;;;;8406521;28;20379;-78
2022/10/04 16:55:41;;;;;;;;;;;17.70;99.90;;;;;;8410936;28;19931;-78
2022/10/04 17:05:05;;;;;;;;;;;17.60;99.90;;;;;;8405139;28;19922;-78
2022/10/04 17:09:16;;;;;;;;;;;17.60;99.90;;;;;;8406990;28;20018;-78
2022/10/04 17:23:26;;;;;;;;;;;17.50;99.90;;;;;;8389817;28;19975;-78
2022/10/04 17:28:08;;;;;;;;;;;17.40;99.90;;;;;;8400415;28;19926;-78
2022/10/04 17:32:23;;;;;;;;;;;17.40;99.90;;;;;;8375834;28;19920;-78
2022/10/04 17:36:31;;;;;;;;;;;17.40;99.90;;;;;;8389563;28;19951;-79
2022/10/04 17:40:51;;;;;;;;;;;17.40;99.90;;;;;;8404807;28;19928;-79
2022/10/04 17:45:10;;;;;;;;;;;17.40;99.90;;;;;;8407143;28;19927;-78
2022/10/04 17:58:17;;;;;;;;;;;17.30;99.90;;;;;;8404356;28;20306;-78
2022/10/04 18:02:42;;;;;;;;;;;17.30;99.90;;;;;;8408151;28;19927;-78
2022/10/04 18:06:51;;;;;;;;;;;17.30;99.90;;;;;;8399590;28;19975;-78
2022/10/04 18:11:02;;;;;;;;;;;17.30;99.90;;;;;;8385307;28;19936;-77
2022/10/04 18:15:20;;;;;;;;;;;17.30;99.90;;;;;;8385718;28;19926;-78
2022/10/04 18:19:40;;;;;;;;;;;17.30;99.90;;;;;;8408110;28;20310;-78
2022/10/04 18:23:52;;;;;;;;;;;17.30;99.90;;;;;;8408944;28;19924;-78
2022/10/04 18:28:06;;;;;;;;;;;17.30;99.90;;;;;;8408258;28;19934;-79
2022/10/04 18:32:26;;;;;;;;;;;17.30;99.90;;;;;;8408135;28;20368;-78
2022/10/04 18:36:30;;;;;;;;;;;17.30;99.90;;;;;;8404342;28;19920;-78
2022/10/04 18:40:33;;;;;;;;;;;17.30;99.90;;;;;;8402384;28;20362;-78
2022/10/04 18:44:44;;;;;;;;;;;17.30;99.90;;;;;;8405955;28;19935;-78
2022/10/04 18:48:55;;;;;;;;;;;17.30;99.90;;;;;;8403388;28;20324;-78
2022/10/04 18:52:56;;;;;;;;;;;17.20;99.90;;;;;;8406412;28;19987;-78
2022/10/04 18:57:15;;;;;;;;;;;17.20;99.90;;;;;;8407326;28;20336;-78
2022/10/04 19:05:58;;;;;;;;;;;17.20;99.90;;;;;;8402633;28;19990;-78
2022/10/04 19:10:16;;;;;;;;;;;17.20;99.90;;;;;;8400956;28;19920;-77
2022/10/04 19:14:21;;;;;;;;;;;17.20;99.90;;;;;;8397690;28;20097;-78
2022/10/04 19:18:32;;;;;;;;;;;17.20;99.90;;;;;;8403170;28;19960;-78
2022/10/04 19:22:52;;;;;;;;;;;17.20;99.90;;;;;;8389497;28;19926;-77
2022/10/04 19:27:00;;;;;;;;;;;17.10;99.90;;;;;;8388560;28;19924;-78
2022/10/04 19:31:01;;;;;;;;;;;17.10;99.90;;;;;;8397457;28;20325;-78
2022/10/04 19:35:06;;;;;;;;;;;17.10;99.90;;;;;;8397540;28;19929;-78
2022/10/04 19:39:28;;;;;;;;;;;17.10;99.90;;;;;;8402587;28;20355;-77
2022/10/04 19:43:48;;;;;;;;;;;17.10;99.90;;;;;;8402613;28;19927;-78
2022/10/04 19:47:54;;;;;;;;;;;17.10;99.90;;;;;;8401636;28;19929;-78
2022/10/04 19:52:11;;;;;;;;;;;17.00;99.90;;;;;;8396307;28;19947;-77
2022/10/04 19:56:19;;;;;;;;;;;17.00;99.90;;;;;;8397144;28;19931;-77
2022/10/04 20:00:21;;;;;;;;;;;17.00;99.90;;;;;;8393749;28;19924;-78
2022/10/04 20:04:36;;;;;;;;;;;17.00;99.90;;;;;;8396817;28;20051;-78
2022/10/04 20:08:47;;;;;;;;;;;16.90;99.90;;;;;;8417869;28;19947;-78
2022/10/04 20:13:09;;;;;;;;;;;16.90;99.90;;;;;;8397790;28;19924;-78
2022/10/04 20:17:28;;;;;;;;;;;16.90;99.90;;;;;;8397229;28;22282;-79
2022/10/04 20:21:30;;;;;;;;;;;16.90;99.90;;;;;;8394175;28;20368;-78
2022/10/04 20:25:41;;;;;;;;;;;16.90;99.90;;;;;;8397086;28;19978;-79
2022/10/04 20:29:52;;;;;;;;;;;16.90;99.90;;;;;;8393321;28;19927;-78
2022/10/04 20:33:54;;;;;;;;;;;16.90;99.90;;;;;;8400608;28;20051;-79
2022/10/04 20:37:55;;;;;;;;;;;16.90;99.90;;;;;;8395638;28;20313;-78
2022/10/04 20:42:33;;;;;;;;;;;16.90;99.90;;;;;;8398633;28;20053;-78
2022/10/04 20:46:36;;;;;;;;;;;16.90;99.90;;;;;;8390379;28;19930;-77
2022/10/04 20:50:40;;;;;;;;;;;16.80;99.90;;;;;;8412682;28;20031;-78
2022/10/04 20:54:51;;;;;;;;;;;16.80;99.90;;;;;;8394752;28;20837;-78
2022/10/04 20:58:53;;;;;;;;;;;16.80;99.90;;;;;;8405887;28;20402;-76
2022/10/04 21:03:05;;;;;;;;;;;16.80;99.90;;;;;;8404401;28;19920;-78
2022/10/04 21:07:12;;;;;;;;;;;16.70;99.90;;;;;;8424789;28;19920;-78
2022/10/04 21:11:15;;;;;;;;;;;16.70;99.90;;;;;;8431531;28;19923;-78
2022/10/04 21:15:21;;;;;;;;;;;16.70;99.90;;;;;;8427677;28;20447;-78
2022/10/04 21:19:32;;;;;;;;;;;16.70;99.90;;;;;;8414993;28;20282;-78
2022/10/04 21:23:34;;;;;;;;;;;16.70;99.90;;;;;;8426271;28;20294;-77
2022/10/04 21:27:37;;;;;;;;;;;16.70;99.90;;;;;;8414265;28;19960;-78
2022/10/04 21:31:39;;;;;;;;;;;16.70;99.90;;;;;;8414891;28;19923;-79
2022/10/04 21:35:40;;;;;;;;;;;16.70;99.90;;;;;;8396203;28;19978;-79
2022/10/04 21:39:42;;;;;;;;;;;16.70;99.90;;;;;;8396270;28;19936;-77
2022/10/04 21:43:44;;;;;;;;;;;16.70;99.90;;;;;;8374120;28;19920;-78
2022/10/04 21:47:45;;;;;;;;;;;16.60;99.90;;;;;;8410886;27;19942;-77
2022/10/04 21:51:47;;;;;;;;;;;16.60;99.90;;;;;;8399921;28;19928;-78
2022/10/04 21:55:48;;;;;;;;;;;16.60;99.90;;;;;;8396189;28;19920;-78
2022/10/04 21:59:51;;;;;;;;;;;16.60;99.90;;;;;;8398910;28;20370;-78
2022/10/04 22:03:53;;;;;;;;;;;16.70;99.90;;;;;;8387917;28;19930;-79
2022/10/04 22:07:54;;;;;;;;;;;16.60;99.90;;;;;;8401614;28;19931;-77
2022/10/04 22:11:56;;;;;;;;;;;16.60;99.90;;;;;;8403769;28;19986;-78
2022/10/04 22:15:58;;;;;;;;;;;16.60;99.90;;;;;;8400694;28;19920;-77
2022/10/04 22:19:59;;;;;;;;;;;16.60;99.90;;;;;;8414660;28;19978;-78
2022/10/04 22:24:02;;;;;;;;;;;16.50;99.90;;;;;;8418980;28;19964;-79
2022/10/04 22:28:12;;;;;;;;;;;16.50;99.90;;;;;;8428095;28;19939;-79
2022/10/04 22:32:22;;;;;;;;;;;16.50;99.90;;;;;;8383595;28;19928;-78
2022/10/04 22:36:37;;;;;;;;;;;16.50;99.90;;;;;;8415843;28;19928;-78
2022/10/04 22:40:38;;;;;;;;;;;16.40;99.90;;;;;;8385930;28;19946;-78
2022/10/04 22:44:40;;;;;;;;;;;16.40;99.90;;;;;;8393023;28;19980;-77
2022/10/04 22:48:43;;;;;;;;;;;16.40;99.90;;;;;;8396360;28;20395;-79
2022/10/04 22:52:45;;;;;;;;;;;16.40;99.90;;;;;;8380327;28;19927;-78
2022/10/04 22:56:47;;;;;;;;;;;16.40;99.90;;;;;;8395645;28;19928;-78
2022/10/04 23:00:49;;;;;;;;;;;16.30;99.90;;;;;;8400119;28;20367;-78
2022/10/04 23:04:52;;;;;;;;;;;16.30;99.90;;;;;;8398842;28;20283;-78
2022/10/04 23:08:54;;;;;;;;;;;16.30;99.90;;;;;;8386153;28;19957;-79
2022/10/04 23:12:55;;;;;;;;;;;16.30;99.90;;;;;;8399955;28;19927;-78
2022/10/04 23:16:57;;;;;;;;;;;16.30;99.90;;;;;;8416535;28;19942;-78
2022/10/04 23:20:59;;;;;;;;;;;16.20;99.90;;;;;;8426566;28;19942;-78
2022/10/04 23:25:05;;;;;;;;;;;16.20;99.90;;;;;;8418587;28;19933;-78
2022/10/04 23:29:26;;;;;;;;;;;16.20;99.90;;;;;;8402972;28;20420;-79
2022/10/04 23:33:28;;;;;;;;;;;16.30;99.90;;;;;;8403588;28;19924;-78
2022/10/04 23:37:31;;;;;;;;;;;16.20;99.90;;;;;;8413296;28;19924;-78
2022/10/04 23:41:32;;;;;;;;;;;16.20;99.90;;;;;;8389608;28;19947;-78
2022/10/04 23:45:40;;;;;;;;;;;16.20;99.90;;;;;;8394441;28;20364;-77
2022/10/04 23:49:43;;;;;;;;;;;16.20;99.90;;;;;;8394240;28;19928;-78
2022/10/04 23:53:46;;;;;;;;;;;16.20;99.90;;;;;;8396678;28;19926;-78
2022/10/04 23:57:48;;;;;;;;;;;16.20;99.90;;;;;;8396858;28;19943;-78
